sensor_id;sensor_type;location;lat;lon;timestamp;P1;durP1;ratioP1;P2;durP2;ratioP2
7747;SDS011;3918;42.564;23.164;2022-12-18T06:02:40;16.80;;;11.10;;
7747;SDS011;3918;42.564;23.164;2022-12-18T06:05:07;17.40;;;11.10;;
7747;SDS011;3918;42.564;23.164;2022-12-18T06:07:34;14.97;;;10.57;;
7747;SDS011;3918;42.564;23.164;2022-12-18T06:10:01;16.30;;;10.73;;
7747;SDS011;3918;42.564;23.164;2022-12-18T06:12:27;16.10;;;10.50;;
7747;SDS011;3918;42.564;23.164;2022-12-18T06:14:54;15.25;;;10.60;;
7747;SDS011;3918;42.564;23.164;2022-12-18T06:17:21;20.83;;;12.77;;
7747;SDS011;3918;42.564;23.164;2022-12-18T06:19:49;19.60;;;12.53;;
7747;SDS011;3918;42.564;23.164;2022-12-18T06:22:16;16.13;;;11.47;;
7747;SDS011;3918;42.564;23.164;2022-12-18T06:24:43;19.57;;;12.00;;
7747;SDS011;3918;42.564;23.164;2022-12-18T06:27:09;18.77;;;11.70;;
7747;SDS011;3918;42.564;23.164;2022-12-18T06:29:36;16.63;;;12.03;;
7747;SDS011;3918;42.564;23.164;2022-12-18T06:32:03;17.80;;;11.80;;
7747;SDS011;3918;42.564;23.164;2022-12-18T06:34:30;20.87;;;13.13;;
7747;SDS011;3918;42.564;23.164;2022-12-18T06:36:59;22.40;;;14.40;;
7747;SDS011;3918;42.564;23.164;2022-12-18T06:39:27;20.10;;;12.80;;
7747;SDS011;3918;42.564;23.164;2022-12-18T06:41:54;23.30;;;14.83;;
7747;SDS011;3918;42.564;23.164;2022-12-18T06:44:20;19.50;;;12.47;;
7747;SDS011;3918;42.564;23.164;2022-12-18T06:46:47;23.93;;;15.80;;
7747;SDS011;3918;42.564;23.164;2022-12-18T06:49:14;23.03;;;14.93;;
7747;SDS011;3918;42.564;23.164;2022-12-18T06:51:42;22.40;;;13.90;;
7747;SDS011;3918;42.564;23.164;2022-12-18T06:54:10;21.07;;;13.77;;
7747;SDS011;3918;42.564;23.164;2022-12-18T06:56:36;24.40;;;14.37;;
7747;SDS011;3918;42.564;23.164;2022-12-18T06:59:03;20.27;;;14.10;;
7747;SDS011;3918;42.564;23.164;2022-12-18T07:01:30;20.13;;;13.10;;
7747;SDS011;3918;42.564;23.164;2022-12-18T07:03:57;19.00;;;12.93;;
7747;SDS011;3918;42.564;23.164;2022-12-18T07:06:24;22.20;;;14.40;;
7747;SDS011;3918;42.564;23.164;2022-12-18T07:08:52;27.63;;;15.37;;
7747;SDS011;3918;42.564;23.164;2022-12-18T07:11:21;27.47;;;14.73;;
7747;SDS011;3918;42.564;23.164;2022-12-18T07:13:48;21.93;;;13.60;;
7747;SDS011;3918;42.564;23.164;2022-12-18T07:16:16;22.63;;;14.27;;
7747;SDS011;3918;42.564;23.164;2022-12-18T07:18:44;24.87;;;13.17;;
7747;SDS011;3918;42.564;23.164;2022-12-18T07:21:12;23.40;;;13.83;;
7747;SDS011;3918;42.564;23.164;2022-12-18T07:23:39;24.50;;;13.93;;
7747;SDS011;3918;42.564;23.164;2022-12-18T07:26:07;23.92;;;13.10;;
7747;SDS011;3918;42.564;23.164;2022-12-18T07:28:36;21.90;;;11.97;;
7747;SDS011;3918;42.564;23.164;2022-12-18T07:31:04;23.27;;;13.00;;
7747;SDS011;3918;42.564;23.164;2022-12-18T07:33:32;27.67;;;12.37;;
7747;SDS011;3918;42.564;23.164;2022-12-18T07:35:59;26.48;;;14.43;;
7747;SDS011;3918;42.564;23.164;2022-12-18T07:38:26;28.77;;;13.83;;
7747;SDS011;3918;42.564;23.164;2022-12-18T07:40:53;31.90;;;14.73;;
7747;SDS011;3918;42.564;23.164;2022-12-18T07:43:20;31.63;;;14.20;;
7747;SDS011;3918;42.564;23.164;2022-12-18T07:45:50;31.73;;;14.77;;
7747;SDS011;3918;42.564;23.164;2022-12-18T07:48:16;25.07;;;13.50;;
7747;SDS011;3918;42.564;23.164;2022-12-18T07:50:43;21.60;;;11.93;;
7747;SDS011;3918;42.564;23.164;2022-12-18T07:53:10;30.53;;;14.13;;
7747;SDS011;3918;42.564;23.164;2022-12-18T07:55:36;26.77;;;13.40;;
7747;SDS011;3918;42.564;23.164;2022-12-18T07:58:03;23.20;;;12.10;;
7747;SDS011;3918;42.564;23.164;2022-12-18T08:00:30;30.80;;;15.67;;
7747;SDS011;3918;42.564;23.164;2022-12-18T08:02:58;25.23;;;14.10;;
7747;SDS011;3918;42.564;23.164;2022-12-18T08:05:25;29.97;;;15.67;;
7747;SDS011;3918;42.564;23.164;2022-12-18T08:07:52;29.23;;;15.00;;
7747;SDS011;3918;42.564;23.164;2022-12-18T08:10:19;32.03;;;14.27;;
7747;SDS011;3918;42.564;23.164;2022-12-18T08:12:48;26.37;;;14.27;;
7747;SDS011;3918;42.564;23.164;2022-12-18T08:15:16;21.92;;;13.25;;
7747;SDS011;3918;42.564;23.164;2022-12-18T08:17:43;26.08;;;13.55;;
7747;SDS011;3918;42.564;23.164;2022-12-18T08:20:11;34.33;;;14.20;;
7747;SDS011;3918;42.564;23.164;2022-12-18T08:22:39;34.38;;;15.60;;
7747;SDS011;3918;42.564;23.164;2022-12-18T08:25:06;26.97;;;14.87;;
7747;SDS011;3918;42.564;23.164;2022-12-18T08:27:33;31.85;;;15.55;;
7747;SDS011;3918;42.564;23.164;2022-12-18T08:30:00;30.90;;;15.88;;
7747;SDS011;3918;42.564;23.164;2022-12-18T08:32:28;32.65;;;16.77;;
7747;SDS011;3918;42.564;23.164;2022-12-18T08:34:54;25.90;;;13.75;;
7747;SDS011;3918;42.564;23.164;2022-12-18T08:37:22;28.02;;;14.77;;
7747;SDS011;3918;42.564;23.164;2022-12-18T08:39:49;24.77;;;12.90;;
7747;SDS011;3918;42.564;23.164;2022-12-18T08:42:16;21.48;;;11.55;;
7747;SDS011;3918;42.564;23.164;2022-12-18T08:45:00;23.80;;;12.38;;
7747;SDS011;3918;42.564;23.164;2022-12-18T08:47:28;42.13;;;23.50;;
7747;SDS011;3918;42.564;23.164;2022-12-18T08:49:54;35.25;;;18.17;;
7747;SDS011;3918;42.564;23.164;2022-12-18T08:52:22;37.47;;;19.73;;
7747;SDS011;3918;42.564;23.164;2022-12-18T08:54:50;55.70;;;24.02;;
7747;SDS011;3918;42.564;23.164;2022-12-18T08:57:16;46.63;;;20.17;;
7747;SDS011;3918;42.564;23.164;2022-12-18T08:59:43;29.57;;;15.30;;
7747;SDS011;3918;42.564;23.164;2022-12-18T09:02:10;28.35;;;14.75;;
7747;SDS011;3918;42.564;23.164;2022-12-18T09:04:37;29.75;;;13.45;;
7747;SDS011;3918;42.564;23.164;2022-12-18T09:07:04;37.17;;;14.47;;
7747;SDS011;3918;42.564;23.164;2022-12-18T09:09:32;30.00;;;15.23;;
7747;SDS011;3918;42.564;23.164;2022-12-18T09:11:59;32.60;;;15.02;;
7747;SDS011;3918;42.564;23.164;2022-12-18T09:14:26;37.38;;;15.30;;
7747;SDS011;3918;42.564;23.164;2022-12-18T09:16:53;34.00;;;15.07;;
7747;SDS011;3918;42.564;23.164;2022-12-18T09:19:19;24.35;;;12.82;;
7747;SDS011;3918;42.564;23.164;2022-12-18T09:21:46;25.58;;;13.93;;
7747;SDS011;3918;42.564;23.164;2022-12-18T09:24:13;24.08;;;13.35;;
7747;SDS011;3918;42.564;23.164;2022-12-18T09:26:42;31.35;;;13.35;;
7747;SDS011;3918;42.564;23.164;2022-12-18T09:29:09;28.48;;;13.93;;
7747;SDS011;3918;42.564;23.164;2022-12-18T09:31:36;26.90;;;11.77;;
7747;SDS011;3918;42.564;23.164;2022-12-18T09:34:04;42.80;;;19.58;;
7747;SDS011;3918;42.564;23.164;2022-12-18T09:36:31;28.40;;;13.15;;
7747;SDS011;3918;42.564;23.164;2022-12-18T09:38:57;26.17;;;13.57;;
7747;SDS011;3918;42.564;23.164;2022-12-18T09:41:30;34.17;;;16.55;;
7747;SDS011;3918;42.564;23.164;2022-12-18T09:44:11;17.95;;;9.30;;
7747;SDS011;3918;42.564;23.164;2022-12-18T09:46:44;36.67;;;19.92;;
7747;SDS011;3918;42.564;23.164;2022-12-18T09:49:14;30.25;;;15.27;;
7747;SDS011;3918;42.564;23.164;2022-12-18T09:51:45;37.70;;;16.15;;
7747;SDS011;3918;42.564;23.164;2022-12-18T09:54:18;27.50;;;13.25;;
7747;SDS011;3918;42.564;23.164;2022-12-18T09:56:48;31.75;;;16.92;;
7747;SDS011;3918;42.564;23.164;2022-12-18T09:59:19;29.05;;;15.57;;
7747;SDS011;3918;42.564;23.164;2022-12-18T10:01:50;27.58;;;12.90;;
7747;SDS011;3918;42.564;23.164;2022-12-18T10:04:17;27.02;;;14.02;;
7747;SDS011;3918;42.564;23.164;2022-12-18T10:06:46;33.17;;;13.30;;
7747;SDS011;3918;42.564;23.164;2022-12-18T10:09:20;24.80;;;13.27;;
7747;SDS011;3918;42.564;23.164;2022-12-18T10:11:56;21.77;;;12.00;;
7747;SDS011;3918;42.564;23.164;2022-12-18T10:14:36;21.20;;;11.70;;
7747;SDS011;3918;42.564;23.164;2022-12-18T10:17:13;26.75;;;13.77;;
7747;SDS011;3918;42.564;23.164;2022-12-18T10:19:49;20.85;;;10.85;;
7747;SDS011;3918;42.564;23.164;2022-12-18T10:22:21;24.83;;;11.57;;
7747;SDS011;3918;42.564;23.164;2022-12-18T10:25:03;24.42;;;11.25;;
7747;SDS011;3918;42.564;23.164;2022-12-18T10:27:39;26.33;;;12.43;;
7747;SDS011;3918;42.564;23.164;2022-12-18T10:30:11;28.35;;;12.35;;
7747;SDS011;3918;42.564;23.164;2022-12-18T10:32:40;24.65;;;11.45;;
7747;SDS011;3918;42.564;23.164;2022-12-18T10:35:08;27.48;;;11.75;;
7747;SDS011;3918;42.564;23.164;2022-12-18T10:37:58;27.77;;;12.48;;
7747;SDS011;3918;42.564;23.164;2022-12-18T10:40:27;36.08;;;12.18;;
7747;SDS011;3918;42.564;23.164;2022-12-18T10:43:03;28.50;;;11.82;;
7747;SDS011;3918;42.564;23.164;2022-12-18T10:45:32;32.08;;;12.50;;
7747;SDS011;3918;42.564;23.164;2022-12-18T10:48:00;27.10;;;11.30;;
7747;SDS011;3918;42.564;23.164;2022-12-18T10:50:28;27.00;;;11.35;;
7747;SDS011;3918;42.564;23.164;2022-12-18T10:52:58;25.17;;;11.05;;
7747;SDS011;3918;42.564;23.164;2022-12-18T10:55:27;24.40;;;12.30;;
7747;SDS011;3918;42.564;23.164;2022-12-18T10:58:12;26.50;;;12.68;;
7747;SDS011;3918;42.564;23.164;2022-12-18T11:00:44;23.90;;;9.95;;
7747;SDS011;3918;42.564;23.164;2022-12-18T11:06:00;23.25;;;10.82;;
7747;SDS011;3918;42.564;23.164;2022-12-18T11:08:28;24.80;;;11.07;;
7747;SDS011;3918;42.564;23.164;2022-12-18T11:10:55;18.38;;;10.25;;
7747;SDS011;3918;42.564;23.164;2022-12-18T11:13:22;18.63;;;10.25;;
7747;SDS011;3918;42.564;23.164;2022-12-18T11:15:52;18.27;;;10.15;;
7747;SDS011;3918;42.564;23.164;2022-12-18T11:18:20;20.65;;;10.65;;
7747;SDS011;3918;42.564;23.164;2022-12-18T11:20:51;10.48;;;5.78;;
7747;SDS011;3918;42.564;23.164;2022-12-18T11:23:20;12.48;;;7.05;;
7747;SDS011;3918;42.564;23.164;2022-12-18T11:25:53;15.18;;;8.35;;
7747;SDS011;3918;42.564;23.164;2022-12-18T11:28:25;11.15;;;7.03;;
7747;SDS011;3918;42.564;23.164;2022-12-18T11:31:09;9.18;;;6.45;;
7747;SDS011;3918;42.564;23.164;2022-12-18T11:33:47;7.38;;;5.25;;
7747;SDS011;3918;42.564;23.164;2022-12-18T11:36:20;12.68;;;6.93;;
7747;SDS011;3918;42.564;23.164;2022-12-18T11:38:48;9.60;;;5.72;;
7747;SDS011;3918;42.564;23.164;2022-12-18T11:41:19;6.63;;;4.00;;
7747;SDS011;3918;42.564;23.164;2022-12-18T11:44:13;13.63;;;6.07;;
7747;SDS011;3918;42.564;23.164;2022-12-18T11:46:46;11.60;;;7.72;;
7747;SDS011;3918;42.564;23.164;2022-12-18T11:49:19;8.80;;;6.38;;
7747;SDS011;3918;42.564;23.164;2022-12-18T11:51:51;11.80;;;6.10;;
7747;SDS011;3918;42.564;23.164;2022-12-18T11:54:21;11.90;;;6.20;;
7747;SDS011;3918;42.564;23.164;2022-12-18T11:56:49;11.05;;;6.63;;
7747;SDS011;3918;42.564;23.164;2022-12-18T11:59:24;11.52;;;6.00;;
7747;SDS011;3918;42.564;23.164;2022-12-18T12:02:00;12.35;;;6.70;;
7747;SDS011;3918;42.564;23.164;2022-12-18T12:04:43;14.10;;;7.95;;
7747;SDS011;3918;42.564;23.164;2022-12-18T12:07:25;11.45;;;6.07;;
7747;SDS011;3918;42.564;23.164;2022-12-18T12:10:05;17.63;;;10.27;;
7747;SDS011;3918;42.564;23.164;2022-12-18T12:12:45;11.35;;;6.28;;
7747;SDS011;3918;42.564;23.164;2022-12-18T12:15:28;10.70;;;7.25;;
7747;SDS011;3918;42.564;23.164;2022-12-18T12:18:05;16.92;;;9.43;;
7747;SDS011;3918;42.564;23.164;2022-12-18T12:20:44;13.68;;;7.75;;
7747;SDS011;3918;42.564;23.164;2022-12-18T12:23:20;11.15;;;7.88;;
7747;SDS011;3918;42.564;23.164;2022-12-18T12:25:55;10.68;;;7.53;;
7747;SDS011;3918;42.564;23.164;2022-12-18T12:28:33;13.30;;;8.18;;
7747;SDS011;3918;42.564;23.164;2022-12-18T12:31:15;15.65;;;8.05;;
7747;SDS011;3918;42.564;23.164;2022-12-18T12:33:52;14.27;;;7.50;;
7747;SDS011;3918;42.564;23.164;2022-12-18T12:36:29;12.88;;;7.03;;
7747;SDS011;3918;42.564;23.164;2022-12-18T12:39:05;14.10;;;8.40;;
7747;SDS011;3918;42.564;23.164;2022-12-18T12:41:37;12.70;;;7.43;;
7747;SDS011;3918;42.564;23.164;2022-12-18T12:44:25;14.75;;;7.10;;
7747;SDS011;3918;42.564;23.164;2022-12-18T12:46:55;12.02;;;7.45;;
7747;SDS011;3918;42.564;23.164;2022-12-18T12:49:27;12.95;;;7.95;;
7747;SDS011;3918;42.564;23.164;2022-12-18T12:52:00;13.20;;;7.32;;
7747;SDS011;3918;42.564;23.164;2022-12-18T12:54:31;14.23;;;8.25;;
7747;SDS011;3918;42.564;23.164;2022-12-18T12:57:00;13.45;;;7.80;;
7747;SDS011;3918;42.564;23.164;2022-12-18T12:59:40;17.95;;;7.70;;
7747;SDS011;3918;42.564;23.164;2022-12-18T13:02:18;12.73;;;6.97;;
7747;SDS011;3918;42.564;23.164;2022-12-18T13:04:52;15.77;;;8.63;;
7747;SDS011;3918;42.564;23.164;2022-12-18T13:07:27;15.23;;;8.38;;
7747;SDS011;3918;42.564;23.164;2022-12-18T13:10:22;19.08;;;10.30;;
7747;SDS011;3918;42.564;23.164;2022-12-18T13:12:52;16.95;;;7.63;;
7747;SDS011;3918;42.564;23.164;2022-12-18T13:15:23;17.25;;;9.80;;
7747;SDS011;3918;42.564;23.164;2022-12-18T13:20:42;15.57;;;7.75;;
7747;SDS011;3918;42.564;23.164;2022-12-18T13:23:27;11.88;;;7.10;;
7747;SDS011;3918;42.564;23.164;2022-12-18T13:25:56;13.07;;;7.30;;
7747;SDS011;3918;42.564;23.164;2022-12-18T13:28:48;11.43;;;6.88;;
7747;SDS011;3918;42.564;23.164;2022-12-18T13:34:32;17.55;;;8.27;;
7747;SDS011;3918;42.564;23.164;2022-12-18T13:43:32;18.45;;;8.52;;
7747;SDS011;3918;42.564;23.164;2022-12-18T13:46:03;28.67;;;15.30;;
7747;SDS011;3918;42.564;23.164;2022-12-18T13:48:33;16.20;;;10.00;;
7747;SDS011;3918;42.564;23.164;2022-12-18T13:51:03;16.95;;;8.98;;
7747;SDS011;3918;42.564;23.164;2022-12-18T13:53:35;18.05;;;10.20;;
7747;SDS011;3918;42.564;23.164;2022-12-18T13:56:05;20.75;;;10.82;;
7747;SDS011;3918;42.564;23.164;2022-12-18T13:58:32;16.35;;;10.18;;
7747;SDS011;3918;42.564;23.164;2022-12-18T14:00:59;15.00;;;8.82;;
7747;SDS011;3918;42.564;23.164;2022-12-18T14:03:28;18.20;;;9.15;;
7747;SDS011;3918;42.564;23.164;2022-12-18T14:05:58;15.93;;;8.32;;
7747;SDS011;3918;42.564;23.164;2022-12-18T14:08:30;14.88;;;9.15;;
7747;SDS011;3918;42.564;23.164;2022-12-18T14:11:02;16.38;;;8.88;;
7747;SDS011;3918;42.564;23.164;2022-12-18T14:13:32;16.73;;;9.20;;
7747;SDS011;3918;42.564;23.164;2022-12-18T14:16:03;16.13;;;8.63;;
7747;SDS011;3918;42.564;23.164;2022-12-18T14:18:35;16.10;;;8.68;;
7747;SDS011;3918;42.564;23.164;2022-12-18T14:21:15;21.08;;;11.60;;
7747;SDS011;3918;42.564;23.164;2022-12-18T14:23:44;17.95;;;9.77;;
7747;SDS011;3918;42.564;23.164;2022-12-18T14:26:23;20.48;;;10.00;;
7747;SDS011;3918;42.564;23.164;2022-12-18T14:28:53;18.30;;;9.35;;
7747;SDS011;3918;42.564;23.164;2022-12-18T14:31:21;15.68;;;8.85;;
7747;SDS011;3918;42.564;23.164;2022-12-18T14:33:49;16.90;;;9.27;;
7747;SDS011;3918;42.564;23.164;2022-12-18T14:36:17;20.95;;;10.95;;
7747;SDS011;3918;42.564;23.164;2022-12-18T14:38:47;21.73;;;10.48;;
7747;SDS011;3918;42.564;23.164;2022-12-18T14:41:16;21.67;;;10.18;;
7747;SDS011;3918;42.564;23.164;2022-12-18T14:43:47;20.40;;;9.48;;
7747;SDS011;3918;42.564;23.164;2022-12-18T14:46:28;19.98;;;10.30;;
7747;SDS011;3918;42.564;23.164;2022-12-18T14:48:59;17.15;;;9.00;;
7747;SDS011;3918;42.564;23.164;2022-12-18T14:51:28;20.13;;;9.50;;
7747;SDS011;3918;42.564;23.164;2022-12-18T14:53:57;22.17;;;10.15;;
7747;SDS011;3918;42.564;23.164;2022-12-18T14:56:26;17.48;;;9.07;;
7747;SDS011;3918;42.564;23.164;2022-12-18T14:58:56;16.88;;;9.30;;
7747;SDS011;3918;42.564;23.164;2022-12-18T15:01:26;20.25;;;9.10;;
7747;SDS011;3918;42.564;23.164;2022-12-18T15:03:56;27.45;;;9.38;;
7747;SDS011;3918;42.564;23.164;2022-12-18T15:06:26;19.33;;;10.68;;
7747;SDS011;3918;42.564;23.164;2022-12-18T15:08:55;21.75;;;9.30;;
7747;SDS011;3918;42.564;23.164;2022-12-18T15:11:32;17.52;;;9.02;;
7747;SDS011;3918;42.564;23.164;2022-12-18T15:16:57;21.17;;;10.23;;
7747;SDS011;3918;42.564;23.164;2022-12-18T15:19:27;26.58;;;10.93;;
7747;SDS011;3918;42.564;23.164;2022-12-18T15:22:01;24.48;;;10.05;;
7747;SDS011;3918;42.564;23.164;2022-12-18T15:24:29;24.13;;;10.57;;
7747;SDS011;3918;42.564;23.164;2022-12-18T15:26:58;22.88;;;10.15;;
7747;SDS011;3918;42.564;23.164;2022-12-18T15:29:26;23.87;;;10.07;;
7747;SDS011;3918;42.564;23.164;2022-12-18T15:32:00;26.40;;;10.43;;
7747;SDS011;3918;42.564;23.164;2022-12-18T15:34:30;25.33;;;9.97;;
7747;SDS011;3918;42.564;23.164;2022-12-18T15:36:59;31.23;;;12.65;;
7747;SDS011;3918;42.564;23.164;2022-12-18T15:39:25;31.25;;;13.98;;
7747;SDS011;3918;42.564;23.164;2022-12-18T15:41:52;23.52;;;11.02;;
7747;SDS011;3918;42.564;23.164;2022-12-18T15:44:38;28.77;;;10.93;;
7747;SDS011;3918;42.564;23.164;2022-12-18T15:47:07;27.27;;;10.65;;
7747;SDS011;3918;42.564;23.164;2022-12-18T15:49:38;19.77;;;10.00;;
7747;SDS011;3918;42.564;23.164;2022-12-18T15:52:04;22.03;;;9.63;;
7747;SDS011;3918;42.564;23.164;2022-12-18T15:54:32;23.00;;;9.30;;
7747;SDS011;3918;42.564;23.164;2022-12-18T15:57:16;20.00;;;9.87;;
7747;SDS011;3918;42.564;23.164;2022-12-18T15:59:54;22.87;;;9.30;;
7747;SDS011;3918;42.564;23.164;2022-12-18T16:02:23;16.90;;;8.40;;
7747;SDS011;3918;42.564;23.164;2022-12-18T16:04:50;20.67;;;8.98;;
7747;SDS011;3918;42.564;23.164;2022-12-18T16:07:19;18.13;;;7.93;;
7747;SDS011;3918;42.564;23.164;2022-12-18T16:09:46;19.93;;;8.83;;
7747;SDS011;3918;42.564;23.164;2022-12-18T16:12:16;19.20;;;9.00;;
7747;SDS011;3918;42.564;23.164;2022-12-18T16:14:44;18.97;;;8.77;;
7747;SDS011;3918;42.564;23.164;2022-12-18T16:17:13;26.63;;;9.77;;
7747;SDS011;3918;42.564;23.164;2022-12-18T16:19:40;28.50;;;9.80;;
7747;SDS011;3918;42.564;23.164;2022-12-18T16:22:08;28.80;;;10.30;;
7747;SDS011;3918;42.564;23.164;2022-12-18T16:24:46;17.03;;;8.13;;
7747;SDS011;3918;42.564;23.164;2022-12-18T16:27:12;21.97;;;8.10;;
7747;SDS011;3918;42.564;23.164;2022-12-18T16:29:39;21.20;;;8.00;;
7747;SDS011;3918;42.564;23.164;2022-12-18T16:32:06;15.83;;;7.83;;
7747;SDS011;3918;42.564;23.164;2022-12-18T16:34:34;18.93;;;8.23;;
7747;SDS011;3918;42.564;23.164;2022-12-18T16:37:01;17.70;;;8.03;;
7747;SDS011;3918;42.564;23.164;2022-12-18T16:39:29;15.93;;;7.97;;
7747;SDS011;3918;42.564;23.164;2022-12-18T16:41:58;15.30;;;8.17;;
7747;SDS011;3918;42.564;23.164;2022-12-18T16:44:24;17.83;;;7.53;;
7747;SDS011;3918;42.564;23.164;2022-12-18T16:46:52;16.53;;;7.87;;
7747;SDS011;3918;42.564;23.164;2022-12-18T16:49:19;14.73;;;8.70;;
7747;SDS011;3918;42.564;23.164;2022-12-18T16:51:47;19.27;;;7.73;;
7747;SDS011;3918;42.564;23.164;2022-12-18T16:54:14;15.10;;;8.00;;
7747;SDS011;3918;42.564;23.164;2022-12-18T16:56:41;14.93;;;7.67;;
7747;SDS011;3918;42.564;23.164;2022-12-18T16:59:09;15.70;;;7.77;;
7747;SDS011;3918;42.564;23.164;2022-12-18T17:01:37;16.20;;;8.30;;
7747;SDS011;3918;42.564;23.164;2022-12-18T17:04:06;18.47;;;7.87;;
7747;SDS011;3918;42.564;23.164;2022-12-18T17:06:38;15.23;;;7.53;;
7747;SDS011;3918;42.564;23.164;2022-12-18T17:09:08;21.40;;;8.43;;
7747;SDS011;3918;42.564;23.164;2022-12-18T17:11:37;15.60;;;8.50;;
7747;SDS011;3918;42.564;23.164;2022-12-18T17:14:07;19.30;;;8.53;;
7747;SDS011;3918;42.564;23.164;2022-12-18T17:16:34;23.20;;;8.50;;
7747;SDS011;3918;42.564;23.164;2022-12-18T17:19:01;24.17;;;9.93;;
7747;SDS011;3918;42.564;23.164;2022-12-18T17:21:28;25.67;;;9.53;;
7747;SDS011;3918;42.564;23.164;2022-12-18T17:23:54;26.33;;;8.97;;
7747;SDS011;3918;42.564;23.164;2022-12-18T17:26:22;25.03;;;9.30;;
7747;SDS011;3918;42.564;23.164;2022-12-18T17:28:49;26.87;;;9.40;;
7747;SDS011;3918;42.564;23.164;2022-12-18T17:31:17;21.63;;;8.87;;
7747;SDS011;3918;42.564;23.164;2022-12-18T17:33:45;22.47;;;8.63;;
7747;SDS011;3918;42.564;23.164;2022-12-18T17:36:12;22.37;;;8.97;;
7747;SDS011;3918;42.564;23.164;2022-12-18T17:38:41;16.73;;;9.03;;
7747;SDS011;3918;42.564;23.164;2022-12-18T17:41:08;21.20;;;8.93;;
7747;SDS011;3918;42.564;23.164;2022-12-18T17:43:38;19.87;;;9.63;;
7747;SDS011;3918;42.564;23.164;2022-12-18T17:46:10;21.70;;;8.93;;
7747;SDS011;3918;42.564;23.164;2022-12-18T17:48:38;18.23;;;8.80;;
7747;SDS011;3918;42.564;23.164;2022-12-18T17:51:06;20.87;;;8.90;;
7747;SDS011;3918;42.564;23.164;2022-12-18T17:53:34;20.33;;;9.37;;
7747;SDS011;3918;42.564;23.164;2022-12-18T17:56:00;18.07;;;9.43;;
7747;SDS011;3918;42.564;23.164;2022-12-18T17:58:30;21.27;;;9.03;;
7747;SDS011;3918;42.564;23.164;2022-12-18T18:00:59;21.50;;;9.77;;
7747;SDS011;3918;42.564;23.164;2022-12-18T18:03:26;24.93;;;10.00;;
7747;SDS011;3918;42.564;23.164;2022-12-18T18:05:53;19.83;;;8.90;;
7747;SDS011;3918;42.564;23.164;2022-12-18T18:08:21;18.37;;;8.47;;
7747;SDS011;3918;42.564;23.164;2022-12-18T18:10:48;17.93;;;9.13;;
7747;SDS011;3918;42.564;23.164;2022-12-18T18:13:16;16.90;;;8.43;;
7747;SDS011;3918;42.564;23.164;2022-12-18T18:16:04;23.57;;;9.67;;
7747;SDS011;3918;42.564;23.164;2022-12-18T18:18:31;17.67;;;8.93;;
7747;SDS011;3918;42.564;23.164;2022-12-18T18:20:58;23.33;;;9.03;;
7747;SDS011;3918;42.564;23.164;2022-12-18T18:23:30;25.33;;;9.77;;
7747;SDS011;3918;42.564;23.164;2022-12-18T18:26:00;18.73;;;9.30;;
7747;SDS011;3918;42.564;23.164;2022-12-18T18:28:28;23.40;;;9.83;;
7747;SDS011;3918;42.564;23.164;2022-12-18T18:30:54;28.57;;;10.47;;
7747;SDS011;3918;42.564;23.164;2022-12-18T18:33:23;27.73;;;10.03;;
7747;SDS011;3918;42.564;23.164;2022-12-18T18:35:50;21.83;;;9.43;;
7747;SDS011;3918;42.564;23.164;2022-12-18T18:38:16;19.70;;;8.73;;
7747;SDS011;3918;42.564;23.164;2022-12-18T18:40:43;17.90;;;8.87;;
7747;SDS011;3918;42.564;23.164;2022-12-18T18:43:10;21.33;;;10.20;;
7747;SDS011;3918;42.564;23.164;2022-12-18T18:45:37;21.20;;;10.87;;
7747;SDS011;3918;42.564;23.164;2022-12-18T18:48:04;20.63;;;9.93;;
7747;SDS011;3918;42.564;23.164;2022-12-18T18:50:32;21.00;;;9.97;;
7747;SDS011;3918;42.564;23.164;2022-12-18T18:53:00;25.03;;;10.57;;
7747;SDS011;3918;42.564;23.164;2022-12-18T18:55:27;26.77;;;11.10;;
7747;SDS011;3918;42.564;23.164;2022-12-18T18:57:53;26.40;;;11.13;;
7747;SDS011;3918;42.564;23.164;2022-12-18T19:00:21;28.93;;;10.87;;
7747;SDS011;3918;42.564;23.164;2022-12-18T19:02:47;21.43;;;10.30;;
7747;SDS011;3918;42.564;23.164;2022-12-18T19:05:14;22.30;;;9.50;;
7747;SDS011;3918;42.564;23.164;2022-12-18T19:07:42;18.67;;;9.10;;
7747;SDS011;3918;42.564;23.164;2022-12-18T19:10:09;22.53;;;8.50;;
7747;SDS011;3918;42.564;23.164;2022-12-18T19:12:36;24.43;;;10.00;;
7747;SDS011;3918;42.564;23.164;2022-12-18T19:15:19;22.53;;;9.27;;
7747;SDS011;3918;42.564;23.164;2022-12-18T19:17:46;23.10;;;10.27;;
7747;SDS011;3918;42.564;23.164;2022-12-18T19:20:13;22.70;;;9.83;;
7747;SDS011;3918;42.564;23.164;2022-12-18T19:22:40;23.07;;;10.10;;
7747;SDS011;3918;42.564;23.164;2022-12-18T19:25:08;25.10;;;9.93;;
7747;SDS011;3918;42.564;23.164;2022-12-18T19:27:35;23.80;;;10.70;;
7747;SDS011;3918;42.564;23.164;2022-12-18T19:30:04;24.98;;;11.65;;
7747;SDS011;3918;42.564;23.164;2022-12-18T19:32:32;24.37;;;10.60;;
7747;SDS011;3918;42.564;23.164;2022-12-18T19:34:59;24.37;;;11.43;;
7747;SDS011;3918;42.564;23.164;2022-12-18T19:37:26;28.23;;;9.63;;
7747;SDS011;3918;42.564;23.164;2022-12-18T19:39:53;23.20;;;10.23;;
7747;SDS011;3918;42.564;23.164;2022-12-18T19:42:22;21.67;;;10.37;;
7747;SDS011;3918;42.564;23.164;2022-12-18T19:44:48;25.63;;;10.57;;
7747;SDS011;3918;42.564;23.164;2022-12-18T19:47:15;25.57;;;10.63;;
7747;SDS011;3918;42.564;23.164;2022-12-18T19:49:42;22.33;;;9.93;;
7747;SDS011;3918;42.564;23.164;2022-12-18T19:52:11;25.00;;;11.33;;
7747;SDS011;3918;42.564;23.164;2022-12-18T19:54:40;29.67;;;10.67;;
7747;SDS011;3918;42.564;23.164;2022-12-18T19:57:07;25.27;;;10.00;;
7747;SDS011;3918;42.564;23.164;2022-12-18T19:59:37;21.10;;;10.70;;
